sensor_id;sensor_type;location;lat;lon;timestamp;pressure;altitude;pressure_sealevel;temperature;humidity
80184;BME280;69682;52.138;5.440;2024-03-08T00:00:34;101991.66;;;2.60;86.76
80184;BME280;69682;52.138;5.440;2024-03-08T00:03:01;101996.94;;;2.58;86.30
80184;BME280;69682;52.138;5.440;2024-03-08T00:05:29;101984.84;;;2.51;87.07
80184;BME280;69682;52.138;5.440;2024-03-08T00:07:56;101991.03;;;2.50;86.29
80184;BME280;69682;52.138;5.440;2024-03-08T00:10:23;101995.44;;;2.48;86.69
80184;BME280;69682;52.138;5.440;2024-03-08T00:12:53;101991.97;;;2.46;86.61
80184;BME280;69682;52.138;5.440;2024-03-08T00:15:20;101988.56;;;2.42;86.47
80184;BME280;69682;52.138;5.440;2024-03-08T00:17:50;101988.59;;;2.41;86.69
80184;BME280;69682;52.138;5.440;2024-03-08T00:20:17;101984.25;;;2.40;86.21
80184;BME280;69682;52.138;5.440;2024-03-08T00:22:46;101982.53;;;2.39;86.75
80184;BME280;69682;52.138;5.440;2024-03-08T00:25:13;101974.72;;;2.36;86.77
80184;BME280;69682;52.138;5.440;2024-03-08T00:27:41;101973.81;;;2.35;86.69
80184;BME280;69682;52.138;5.440;2024-03-08T00:30:08;101979.13;;;2.34;86.79
80184;BME280;69682;52.138;5.440;2024-03-08T00:32:35;101980.78;;;2.38;87.09
80184;BME280;69682;52.138;5.440;2024-03-08T00:35:02;101982.53;;;2.39;87.27
80184;BME280;69682;52.138;5.440;2024-03-08T00:37:29;101976.41;;;2.38;87.14
80184;BME280;69682;52.138;5.440;2024-03-08T00:39:56;101977.34;;;2.36;86.94
80184;BME280;69682;52.138;5.440;2024-03-08T00:42:23;101975.66;;;2.33;86.63
80184;BME280;69682;52.138;5.440;2024-03-08T00:44:50;101968.69;;;2.31;87.21
80184;BME280;69682;52.138;5.440;2024-03-08T00:47:18;101973.16;;;2.27;86.47
80184;BME280;69682;52.138;5.440;2024-03-08T00:49:46;101970.56;;;2.25;86.66
80184;BME280;69682;52.138;5.440;2024-03-08T00:52:13;101969.69;;;2.25;86.73
80184;BME280;69682;52.138;5.440;2024-03-08T00:54:40;101961.03;;;2.21;87.00
80184;BME280;69682;52.138;5.440;2024-03-08T00:57:07;101963.66;;;2.20;86.38
80184;BME280;69682;52.138;5.440;2024-03-08T00:59:34;101956.75;;;2.16;86.93
80184;BME280;69682;52.138;5.440;2024-03-08T01:02:01;101944.56;;;2.13;86.98
80184;BME280;69682;52.138;5.440;2024-03-08T01:04:28;101951.66;;;2.10;86.93
80184;BME280;69682;52.138;5.440;2024-03-08T01:06:56;101940.31;;;2.08;86.67
80184;BME280;69682;52.138;5.440;2024-03-08T01:09:24;101940.38;;;2.04;86.92
80184;BME280;69682;52.138;5.440;2024-03-08T01:11:51;101933.41;;;2.03;86.54
80184;BME280;69682;52.138;5.440;2024-03-08T01:14:21;101930.84;;;2.00;87.00
80184;BME280;69682;52.138;5.440;2024-03-08T01:16:52;101930.88;;;1.99;86.93
80184;BME280;69682;52.138;5.440;2024-03-08T01:19:20;101928.31;;;1.96;87.15
80184;BME280;69682;52.138;5.440;2024-03-08T01:21:47;101931.88;;;1.93;86.95
80184;BME280;69682;52.138;5.440;2024-03-08T01:24:13;101926.66;;;1.92;86.99
80184;BME280;69682;52.138;5.440;2024-03-08T01:26:40;101914.44;;;1.89;86.36
80184;BME280;69682;52.138;5.440;2024-03-08T01:29:06;101917.97;;;1.88;87.39
80184;BME280;69682;52.138;5.440;2024-03-08T01:31:34;101924.09;;;1.89;87.25
80184;BME280;69682;52.138;5.440;2024-03-08T01:34:03;101909.28;;;1.86;87.07
80184;BME280;69682;52.138;5.440;2024-03-08T01:36:29;101909.34;;;1.81;87.23
80184;BME280;69682;52.138;5.440;2024-03-08T01:38:59;101908.63;;;1.75;86.49
80184;BME280;69682;52.138;5.440;2024-03-08T01:41:25;101906.09;;;1.70;86.51
80184;BME280;69682;52.138;5.440;2024-03-08T01:43:54;101907.00;;;1.69;86.33
80184;BME280;69682;52.138;5.440;2024-03-08T01:46:21;101895.72;;;1.66;87.20
80184;BME280;69682;52.138;5.440;2024-03-08T01:48:49;101891.38;;;1.63;86.76
80184;BME280;69682;52.138;5.440;2024-03-08T01:51:18;101887.13;;;1.57;86.32
80184;BME280;69682;52.138;5.440;2024-03-08T01:53:47;101882.72;;;1.59;86.47
80184;BME280;69682;52.138;5.440;2024-03-08T01:56:14;101891.34;;;1.65;87.18
80184;BME280;69682;52.138;5.440;2024-03-08T01:58:41;101887.06;;;1.61;86.89
80184;BME280;69682;52.138;5.440;2024-03-08T02:01:12;101884.50;;;1.57;86.94
80184;BME280;69682;52.138;5.440;2024-03-08T02:03:45;101880.97;;;1.58;86.82
80184;BME280;69682;52.138;5.440;2024-03-08T02:06:13;101881.03;;;1.57;86.68
80184;BME280;69682;52.138;5.440;2024-03-08T02:08:46;101879.31;;;1.54;86.53
80184;BME280;69682;52.138;5.440;2024-03-08T02:11:13;101882.03;;;1.50;86.78
80184;BME280;69682;52.138;5.440;2024-03-08T02:13:41;101874.16;;;1.50;86.85
80184;BME280;69682;52.138;5.440;2024-03-08T02:16:08;101873.34;;;1.48;86.81
80184;BME280;69682;52.138;5.440;2024-03-08T02:18:36;101865.41;;;1.49;87.29
80184;BME280;69682;52.138;5.440;2024-03-08T02:21:04;101866.41;;;1.45;86.34
80184;BME280;69682;52.138;5.440;2024-03-08T02:23:33;101868.94;;;1.48;86.49
80184;BME280;69682;52.138;5.440;2024-03-08T02:26:01;101866.41;;;1.45;86.85
80184;BME280;69682;52.138;5.440;2024-03-08T02:28:27;101868.19;;;1.43;86.76
80184;BME280;69682;52.138;5.440;2024-03-08T02:30:58;101849.84;;;1.42;86.85
80184;BME280;69682;52.138;5.440;2024-03-08T02:33:26;101851.66;;;1.38;86.42
80184;BME280;69682;52.138;5.440;2024-03-08T02:35:53;101848.28;;;1.33;86.16
80184;BME280;69682;52.138;5.440;2024-03-08T02:38:21;101850.06;;;1.32;86.57
80184;BME280;69682;52.138;5.440;2024-03-08T02:40:50;101845.75;;;1.28;86.22
80184;BME280;69682;52.138;5.440;2024-03-08T02:43:19;101843.19;;;1.25;86.33
80184;BME280;69682;52.138;5.440;2024-03-08T02:45:46;101838.84;;;1.24;86.74
80184;BME280;69682;52.138;5.440;2024-03-08T02:48:14;101836.28;;;1.21;86.69
80184;BME280;69682;52.138;5.440;2024-03-08T02:50:43;101831.97;;;1.17;86.61
80184;BME280;69682;52.138;5.440;2024-03-08T02:53:12;101828.50;;;1.17;86.28
80184;BME280;69682;52.138;5.440;2024-03-08T02:55:40;101822.47;;;1.13;86.99
80184;BME280;69682;52.138;5.440;2024-03-08T02:58:08;101814.53;;;1.14;86.57
80184;BME280;69682;52.138;5.440;2024-03-08T03:00:37;101817.22;;;1.13;86.80
80184;BME280;69682;52.138;5.440;2024-03-08T03:03:06;101819.03;;;1.09;86.28
80184;BME280;69682;52.138;5.440;2024-03-08T03:05:33;101824.25;;;1.11;86.28
80184;BME280;69682;52.138;5.440;2024-03-08T03:08:03;101819.84;;;1.11;86.70
80184;BME280;69682;52.138;5.440;2024-03-08T03:10:35;101813.78;;;1.09;86.77
80184;BME280;69682;52.138;5.440;2024-03-08T03:13:03;101806.88;;;1.05;86.63
80184;BME280;69682;52.138;5.440;2024-03-08T03:15:31;101808.69;;;1.03;86.81
80184;BME280;69682;52.138;5.440;2024-03-08T03:17:58;101801.69;;;1.02;87.03
80184;BME280;69682;52.138;5.440;2024-03-08T03:20:27;101801.72;;;1.01;86.93
80184;BME280;69682;52.138;5.440;2024-03-08T03:22:59;101804.25;;;1.05;86.81
80184;BME280;69682;52.138;5.440;2024-03-08T03:25:28;101796.34;;;1.07;86.82
80184;BME280;69682;52.138;5.440;2024-03-08T03:28:02;101793.75;;;1.05;86.37
80184;BME280;69682;52.138;5.440;2024-03-08T03:30:29;101799.91;;;1.04;86.28
80184;BME280;69682;52.138;5.440;2024-03-08T03:33:00;101791.25;;;0.99;86.67
80184;BME280;69682;52.138;5.440;2024-03-08T03:35:28;101793.94;;;0.96;86.90
80184;BME280;69682;52.138;5.440;2024-03-08T03:37:56;101791.31;;;0.96;86.76
80184;BME280;69682;52.138;5.440;2024-03-08T03:40:34;101788.69;;;0.96;86.55
80184;BME280;69682;52.138;5.440;2024-03-08T03:43:01;101786.91;;;0.98;86.77
80184;BME280;69682;52.138;5.440;2024-03-08T03:45:29;101787.78;;;0.99;86.38
80184;BME280;69682;52.138;5.440;2024-03-08T03:48:09;101778.25;;;0.95;86.22
80184;BME280;69682;52.138;5.440;2024-03-08T03:50:37;101779.97;;;0.96;86.46
80184;BME280;69682;52.138;5.440;2024-03-08T03:53:04;101780.88;;;0.95;86.04
80184;BME280;69682;52.138;5.440;2024-03-08T03:55:35;101779.13;;;0.94;86.13
80184;BME280;69682;52.138;5.440;2024-03-08T03:58:07;101777.47;;;0.89;86.39
80184;BME280;69682;52.138;5.440;2024-03-08T04:00:34;101779.19;;;0.90;86.18
80184;BME280;69682;52.138;5.440;2024-03-08T04:03:00;101777.53;;;0.86;86.24
80184;BME280;69682;52.138;5.440;2024-03-08T04:05:27;101779.25;;;0.87;86.59
80184;BME280;69682;52.138;5.440;2024-03-08T04:07:56;101777.59;;;0.83;86.12
80184;BME280;69682;52.138;5.440;2024-03-08T04:10:23;101772.28;;;0.86;86.31
80184;BME280;69682;52.138;5.440;2024-03-08T04:12:50;101768.75;;;0.89;86.08
80184;BME280;69682;52.138;5.440;2024-03-08T04:15:19;101762.59;;;0.90;85.63
80184;BME280;69682;52.138;5.440;2024-03-08T04:17:47;101765.19;;;0.92;85.81
80184;BME280;69682;52.138;5.440;2024-03-08T04:20:13;101767.84;;;0.90;85.93
80184;BME280;69682;52.138;5.440;2024-03-08T04:22:40;101763.50;;;0.89;85.87
80184;BME280;69682;52.138;5.440;2024-03-08T04:25:08;101758.31;;;0.86;85.61
80184;BME280;69682;52.138;5.440;2024-03-08T04:27:36;101761.81;;;0.85;85.60
80184;BME280;69682;52.138;5.440;2024-03-08T04:30:03;101760.09;;;0.84;85.51
80184;BME280;69682;52.138;5.440;2024-03-08T04:32:30;101757.53;;;0.81;85.76
80184;BME280;69682;52.138;5.440;2024-03-08T04:34:59;101760.19;;;0.79;85.35
80184;BME280;69682;52.138;5.440;2024-03-08T04:37:27;101752.38;;;0.76;85.56
80184;BME280;69682;52.138;5.440;2024-03-08T04:39:56;101755.00;;;0.76;86.02
80184;BME280;69682;52.138;5.440;2024-03-08T04:42:23;101755.97;;;0.74;85.71
80184;BME280;69682;52.138;5.440;2024-03-08T04:44:54;101747.19;;;0.75;85.74
80184;BME280;69682;52.138;5.440;2024-03-08T04:47:21;101752.44;;;0.75;85.79
80184;BME280;69682;52.138;5.440;2024-03-08T04:49:47;101747.13;;;0.76;85.53
80184;BME280;69682;52.138;5.440;2024-03-08T04:52:14;101751.50;;;0.77;85.96
80184;BME280;69682;52.138;5.440;2024-03-08T04:54:44;101741.09;;;0.73;85.58
80184;BME280;69682;52.138;5.440;2024-03-08T04:57:13;101746.31;;;0.74;85.69
80184;BME280;69682;52.138;5.440;2024-03-08T04:59:40;101738.41;;;0.76;86.02
80184;BME280;69682;52.138;5.440;2024-03-08T05:02:09;101736.63;;;0.76;85.23
80184;BME280;69682;52.138;5.440;2024-03-08T05:04:36;101741.16;;;0.71;85.71
80184;BME280;69682;52.138;5.440;2024-03-08T05:07:02;101737.69;;;0.69;85.43
80184;BME280;69682;52.138;5.440;2024-03-08T05:09:30;101736.84;;;0.67;85.38
80184;BME280;69682;52.138;5.440;2024-03-08T05:11:58;101733.34;;;0.66;85.75
80184;BME280;69682;52.138;5.440;2024-03-08T05:14:26;101736.03;;;0.65;85.93
80184;BME280;69682;52.138;5.440;2024-03-08T05:16:53;101734.25;;;0.65;86.15
80184;BME280;69682;52.138;5.440;2024-03-08T05:19:20;101742.19;;;0.62;85.69
80184;BME280;69682;52.138;5.440;2024-03-08T05:21:48;101733.56;;;0.57;85.29
80184;BME280;69682;52.138;5.440;2024-03-08T05:24:16;101734.41;;;0.59;85.90
80184;BME280;69682;52.138;5.440;2024-03-08T05:26:44;101735.25;;;0.60;85.93
80184;BME280;69682;52.138;5.440;2024-03-08T05:29:14;101732.63;;;0.60;85.57
80184;BME280;69682;52.138;5.440;2024-03-08T05:31:49;101725.69;;;0.57;85.33
80184;BME280;69682;52.138;5.440;2024-03-08T05:34:18;101723.91;;;0.58;85.78
80184;BME280;69682;52.138;5.440;2024-03-08T05:36:46;101728.25;;;0.59;85.60
80184;BME280;69682;52.138;5.440;2024-03-08T05:39:13;101726.59;;;0.56;85.79
80184;BME280;69682;52.138;5.440;2024-03-08T05:41:40;101724.03;;;0.53;85.14
80184;BME280;69682;52.138;5.440;2024-03-08T05:44:08;101724.88;;;0.54;85.59
80184;BME280;69682;52.138;5.440;2024-03-08T05:46:35;101726.72;;;0.49;85.34
80184;BME280;69682;52.138;5.440;2024-03-08T05:49:07;101715.41;;;0.47;85.67
80184;BME280;69682;52.138;5.440;2024-03-08T05:51:38;101716.31;;;0.45;85.78
80184;BME280;69682;52.138;5.440;2024-03-08T05:54:11;101717.22;;;0.43;85.58
80184;BME280;69682;52.138;5.440;2024-03-08T05:56:42;101719.00;;;0.42;85.81
80184;BME280;69682;52.138;5.440;2024-03-08T05:59:10;101713.69;;;0.44;85.55
80184;BME280;69682;52.138;5.440;2024-03-08T06:01:37;101719.00;;;0.42;85.59
80184;BME280;69682;52.138;5.440;2024-03-08T06:04:04;101707.72;;;0.39;85.66
80184;BME280;69682;52.138;5.440;2024-03-08T06:06:30;101705.94;;;0.39;85.79
80184;BME280;69682;52.138;5.440;2024-03-08T06:08:58;101701.63;;;0.38;85.48
80184;BME280;69682;52.138;5.440;2024-03-08T06:11:26;101697.31;;;0.34;85.81
80184;BME280;69682;52.138;5.440;2024-03-08T06:14:00;101696.47;;;0.32;85.68
80184;BME280;69682;52.138;5.440;2024-03-08T06:16:27;101702.59;;;0.31;85.81
80184;BME280;69682;52.138;5.440;2024-03-08T06:18:56;101702.59;;;0.33;85.74
80184;BME280;69682;52.138;5.440;2024-03-08T06:21:24;101703.50;;;0.30;85.70
80184;BME280;69682;52.138;5.440;2024-03-08T06:23:58;101699.97;;;0.33;86.02
80184;BME280;69682;52.138;5.440;2024-03-08T06:26:25;101698.22;;;0.33;85.57
80184;BME280;69682;52.138;5.440;2024-03-08T06:28:57;101702.53;;;0.36;86.16
80184;BME280;69682;52.138;5.440;2024-03-08T06:31:24;101693.75;;;0.37;85.57
80184;BME280;69682;52.138;5.440;2024-03-08T06:33:51;101697.31;;;0.34;85.81
80184;BME280;69682;52.138;5.440;2024-03-08T06:36:18;101695.53;;;0.35;85.41
80184;BME280;69682;52.138;5.440;2024-03-08T06:38:51;101699.91;;;0.36;85.69
80184;BME280;69682;52.138;5.440;2024-03-08T06:41:18;101698.16;;;0.36;85.65
80184;BME280;69682;52.138;5.440;2024-03-08T06:43:46;101699.84;;;0.39;85.47
80184;BME280;69682;52.138;5.440;2024-03-08T06:46:15;101697.16;;;0.42;85.98
80184;BME280;69682;52.138;5.440;2024-03-08T06:48:42;101685.78;;;0.43;85.39
80184;BME280;69682;52.138;5.440;2024-03-08T06:51:08;101685.75;;;0.44;85.67
80184;BME280;69682;52.138;5.440;2024-03-08T06:53:37;101689.25;;;0.45;85.46
80184;BME280;69682;52.138;5.440;2024-03-08T06:56:05;101691.00;;;0.44;85.23
80184;BME280;69682;52.138;5.440;2024-03-08T06:58:31;101683.94;;;0.47;85.40
80184;BME280;69682;52.138;5.440;2024-03-08T07:00:59;101683.00;;;0.51;85.18
80184;BME280;69682;52.138;5.440;2024-03-08T07:03:27;101683.81;;;0.53;85.49
80184;BME280;69682;52.138;5.440;2024-03-08T07:05:56;101680.28;;;0.55;85.62
80184;BME280;69682;52.138;5.440;2024-03-08T07:08:25;101679.31;;;0.59;85.53
80184;BME280;69682;52.138;5.440;2024-03-08T07:10:54;101681.03;;;0.62;84.78
80184;BME280;69682;52.138;5.440;2024-03-08T07:13:21;101678.34;;;0.63;85.33
80184;BME280;69682;52.138;5.440;2024-03-08T07:15:47;101675.72;;;0.65;84.95
80184;BME280;69682;52.138;5.440;2024-03-08T07:18:14;101672.81;;;0.77;85.19
80184;BME280;69682;52.138;5.440;2024-03-08T07:20:41;101676.28;;;0.78;84.69
80184;BME280;69682;52.138;5.440;2024-03-08T07:23:10;101675.31;;;0.82;84.82
80184;BME280;69682;52.138;5.440;2024-03-08T07:25:37;101669.19;;;0.83;84.64
80184;BME280;69682;52.138;5.440;2024-03-08T07:28:06;101666.44;;;0.87;84.61
80184;BME280;69682;52.138;5.440;2024-03-08T07:30:37;101662.94;;;0.88;84.47
80184;BME280;69682;52.138;5.440;2024-03-08T07:33:12;101659.34;;;0.93;84.73
80184;BME280;69682;52.138;5.440;2024-03-08T07:35:40;101663.59;;;0.98;84.88
80184;BME280;69682;52.138;5.440;2024-03-08T07:38:08;101659.19;;;1.00;84.66
80184;BME280;69682;52.138;5.440;2024-03-08T07:40:40;101656.47;;;1.03;84.36
80184;BME280;69682;52.138;5.440;2024-03-08T07:43:11;101656.41;;;1.06;84.48
80184;BME280;69682;52.138;5.440;2024-03-08T07:45:38;101652.81;;;1.10;84.24
80184;BME280;69682;52.138;5.440;2024-03-08T07:48:05;101636.97;;;1.15;84.12
80184;BME280;69682;52.138;5.440;2024-03-08T07:50:37;101642.13;;;1.18;83.83
80184;BME280;69682;52.138;5.440;2024-03-08T07:53:06;101640.22;;;1.25;83.38
80184;BME280;69682;52.138;5.440;2024-03-08T07:55:33;101640.09;;;1.29;83.76
80184;BME280;69682;52.138;5.440;2024-03-08T07:58:02;101644.31;;;1.35;83.93
80184;BME280;69682;52.138;5.440;2024-03-08T08:00:32;101632.84;;;1.39;84.07
80184;BME280;69682;52.138;5.440;2024-03-08T08:02:59;101637.97;;;1.44;83.23
80184;BME280;69682;52.138;5.440;2024-03-08T08:05:25;101632.66;;;1.47;83.29
80184;BME280;69682;52.138;5.440;2024-03-08T08:07:52;101624.66;;;1.51;82.94
80184;BME280;69682;52.138;5.440;2024-03-08T08:10:22;101624.50;;;1.57;83.29
80184;BME280;69682;52.138;5.440;2024-03-08T08:12:52;101623.50;;;1.62;82.83
80184;BME280;69682;52.138;5.440;2024-03-08T08:15:18;101618.13;;;1.68;82.51
80184;BME280;69682;52.138;5.440;2024-03-08T08:17:45;101614.50;;;1.72;82.25
80184;BME280;69682;52.138;5.440;2024-03-08T08:20:12;101611.72;;;1.76;82.31
80184;BME280;69682;52.138;5.440;2024-03-08T08:22:40;101607.22;;;1.81;82.67
80184;BME280;69682;52.138;5.440;2024-03-08T08:25:07;101601.00;;;1.86;82.36
80184;BME280;69682;52.138;5.440;2024-03-08T08:27:34;101600.81;;;1.92;81.94
80184;BME280;69682;52.138;5.440;2024-03-08T08:30:03;101605.91;;;1.98;81.98
80184;BME280;69682;52.138;5.440;2024-03-08T08:32:35;101606.56;;;2.04;81.64
80184;BME280;69682;52.138;5.440;2024-03-08T08:35:06;101601.19;;;2.09;81.63
80184;BME280;69682;52.138;5.440;2024-03-08T08:37:34;101599.28;;;2.14;81.77
80184;BME280;69682;52.138;5.440;2024-03-08T08:40:04;101586.84;;;2.21;81.94
80184;BME280;69682;52.138;5.440;2024-03-08T08:42:36;101593.63;;;2.28;81.75
80184;BME280;69682;52.138;5.440;2024-03-08T08:45:05;101588.19;;;2.34;81.78
80184;BME280;69682;52.138;5.440;2024-03-08T08:47:45;101580.09;;;2.40;80.90
80184;BME280;69682;52.138;5.440;2024-03-08T08:50:13;101575.50;;;2.47;81.12
80184;BME280;69682;52.138;5.440;2024-03-08T08:52:40;101573.56;;;2.54;80.50
80184;BME280;69682;52.138;5.440;2024-03-08T08:55:07;101574.28;;;2.59;80.25
80184;BME280;69682;52.138;5.440;2024-03-08T08:57:34;101575.00;;;2.64;80.49
80184;BME280;69682;52.138;5.440;2024-03-08T09:00:03;101567.81;;;2.69;80.17
80184;BME280;69682;52.138;5.440;2024-03-08T09:02:34;101565.00;;;2.75;80.56
80184;BME280;69682;52.138;5.440;2024-03-08T09:05:01;101564.81;;;2.81;80.75
80184;BME280;69682;52.138;5.440;2024-03-08T09:07:28;101564.59;;;2.87;80.04
80184;BME280;69682;52.138;5.440;2024-03-08T09:09:55;101561.63;;;2.98;79.72
80184;BME280;69682;52.138;5.440;2024-03-08T09:12:25;101557.00;;;3.05;79.87
80184;BME280;69682;52.138;5.440;2024-03-08T09:14:52;101555.09;;;3.10;79.50
80184;BME280;69682;52.138;5.440;2024-03-08T09:17:19;101554.88;;;3.16;79.50
80184;BME280;69682;52.138;5.440;2024-03-08T09:19:49;101546.56;;;3.28;79.71
80184;BME280;69682;52.138;5.440;2024-03-08T09:22:16;101546.53;;;3.30;79.50
80184;BME280;69682;52.138;5.440;2024-03-08T09:24:42;101542.81;;;3.35;79.01
80184;BME280;69682;52.138;5.440;2024-03-08T09:27:13;101543.50;;;3.40;79.28
80184;BME280;69682;52.138;5.440;2024-03-08T09:29:40;101531.00;;;3.47;79.20
80184;BME280;69682;52.138;5.440;2024-03-08T09:32:07;101519.34;;;3.53;78.70
80184;BME280;69682;52.138;5.440;2024-03-08T09:34:33;101527.78;;;3.62;79.25
80184;BME280;69682;52.138;5.440;2024-03-08T09:37:04;101518.69;;;3.71;78.95
80184;BME280;69682;52.138;5.440;2024-03-08T09:39:31;101510.56;;;3.77;77.98
80184;BME280;69682;52.138;5.440;2024-03-08T09:42:01;101512.78;;;3.88;78.61
80184;BME280;69682;52.138;5.440;2024-03-08T09:44:27;101502.88;;;3.95;77.93
80184;BME280;69682;52.138;5.440;2024-03-08T09:46:55;101497.38;;;4.01;78.16
80184;BME280;69682;52.138;5.440;2024-03-08T09:49:22;101499.53;;;4.13;77.76
80184;BME280;69682;52.138;5.440;2024-03-08T09:51:50;101490.22;;;4.26;77.83
80184;BME280;69682;52.138;5.440;2024-03-08T09:54:19;101480.28;;;4.33;77.75
80184;BME280;69682;52.138;5.440;2024-03-08T09:56:52;101479.19;;;4.39;77.34
80184;BME280;69682;52.138;5.440;2024-03-08T09:59:19;101475.56;;;4.41;76.52
80184;BME280;69682;52.138;5.440;2024-03-08T10:02:12;101474.53;;;4.45;76.64
80184;BME280;69682;52.138;5.440;2024-03-08T10:04:41;101467.28;;;4.50;76.58
80184;BME280;69682;52.138;5.440;2024-03-08T10:07:14;101469.47;;;4.61;76.68
80184;BME280;69682;52.138;5.440;2024-03-08T10:09:42;101470.13;;;4.66;76.44
80184;BME280;69682;52.138;5.440;2024-03-08T10:12:15;101464.22;;;4.82;76.50
80184;BME280;69682;52.138;5.440;2024-03-08T10:14:45;101454.78;;;4.96;75.79
80184;BME280;69682;52.138;5.440;2024-03-08T10:17:27;101455.31;;;5.05;75.69
80184;BME280;69682;52.138;5.440;2024-03-08T10:19:58;101445.16;;;5.16;75.02
80184;BME280;69682;52.138;5.440;2024-03-08T10:22:38;101445.31;;;5.32;74.60
80184;BME280;69682;52.138;5.440;2024-03-08T10:25:10;101429.84;;;5.43;75.39
80184;BME280;69682;52.138;5.440;2024-03-08T10:27:40;101426.88;;;5.51;75.14
80184;BME280;69682;52.138;5.440;2024-03-08T10:30:13;101423.41;;;5.67;73.99
80184;BME280;69682;52.138;5.440;2024-03-08T10:32:41;101415.78;;;5.80;74.19
80184;BME280;69682;52.138;5.440;2024-03-08T10:35:08;101415.94;;;5.96;74.35
80184;BME280;69682;52.138;5.440;2024-03-08T10:37:50;101410.00;;;6.10;72.88
80184;BME280;69682;52.138;5.440;2024-03-08T10:40:26;101413.69;;;6.25;73.49
80184;BME280;69682;52.138;5.440;2024-03-08T10:42:56;101398.06;;;6.37;72.93
80184;BME280;69682;52.138;5.440;2024-03-08T10:45:30;101404.06;;;6.58;72.88
80184;BME280;69682;52.138;5.440;2024-03-08T10:48:15;101395.59;;;6.69;71.45
80184;BME280;69682;52.138;5.440;2024-03-08T10:50:49;101390.97;;;6.90;71.42
80184;BME280;69682;52.138;5.440;2024-03-08T10:53:18;101383.81;;;6.92;71.34
80184;BME280;69682;52.138;5.440;2024-03-08T10:55:46;101380.34;;;7.08;70.14
80184;BME280;69682;52.138;5.440;2024-03-08T10:58:12;101380.81;;;7.16;70.08
80184;BME280;69682;52.138;5.440;2024-03-08T11:00:39;101370.59;;;7.41;69.18
80184;BME280;69682;52.138;5.440;2024-03-08T11:06:15;101338.38;;;7.65;68.54
80184;BME280;69682;52.138;5.440;2024-03-08T11:08:46;101342.31;;;7.73;68.27
80184;BME280;69682;52.138;5.440;2024-03-08T11:11:33;101337.16;;;7.86;68.91
80184;BME280;69682;52.138;5.440;2024-03-08T11:14:02;101342.41;;;8.02;67.99
80184;BME280;69682;52.138;5.440;2024-03-08T11:19:05;101324.63;;;8.34;67.17
80184;BME280;69682;52.138;5.440;2024-03-08T11:21:32;101316.47;;;8.68;65.27
80184;BME280;69682;52.138;5.440;2024-03-08T11:24:07;101306.72;;;8.68;65.35
80184;BME280;69682;52.138;5.440;2024-03-08T11:26:34;101303.13;;;8.83;64.43
80184;BME280;69682;52.138;5.440;2024-03-08T11:34:32;101286.66;;;9.34;62.95
80184;BME280;69682;52.138;5.440;2024-03-08T11:37:04;101281.69;;;9.42;62.70
80184;BME280;69682;52.138;5.440;2024-03-08T11:39:32;101276.50;;;9.68;62.53
80184;BME280;69682;52.138;5.440;2024-03-08T11:41:58;101269.44;;;9.94;61.49
80184;BME280;69682;52.138;5.440;2024-03-08T11:44:27;101264.88;;;10.09;60.74
80184;BME280;69682;52.138;5.440;2024-03-08T11:46:54;101265.22;;;10.04;62.52
80184;BME280;69682;52.138;5.440;2024-03-08T11:49:21;101268.53;;;10.08;61.76
80184;BME280;69682;52.138;5.440;2024-03-08T11:51:51;101245.91;;;10.28;60.60
80184;BME280;69682;52.138;5.440;2024-03-08T11:54:21;101247.00;;;10.51;59.13
80184;BME280;69682;52.138;5.440;2024-03-08T11:56:51;101244.63;;;10.72;59.75
80184;BME280;69682;52.138;5.440;2024-03-08T11:59:18;101236.63;;;10.84;59.36
80184;BME280;69682;52.138;5.440;2024-03-08T12:02:03;101231.34;;;11.08;58.37
80184;BME280;69682;52.138;5.440;2024-03-08T12:04:31;101232.31;;;11.07;58.48
80184;BME280;69682;52.138;5.440;2024-03-08T12:07:01;101222.31;;;10.98;57.40
80184;BME280;69682;52.138;5.440;2024-03-08T12:09:28;101225.81;;;10.99;58.10
80184;BME280;69682;52.138;5.440;2024-03-08T12:11:55;101221.25;;;11.01;57.83
80184;BME280;69682;52.138;5.440;2024-03-08T12:14:22;101213.56;;;10.96;58.32
80184;BME280;69682;52.138;5.440;2024-03-08T12:16:50;101221.59;;;10.83;57.54
80184;BME280;69682;52.138;5.440;2024-03-08T12:19:17;101204.63;;;10.97;56.30
80184;BME280;69682;52.138;5.440;2024-03-08T12:21:44;101208.63;;;11.03;57.32
80184;BME280;69682;52.138;5.440;2024-03-08T12:24:18;101199.63;;;11.17;54.65
80184;BME280;69682;52.138;5.440;2024-03-08T12:26:48;101195.72;;;11.09;55.63
80184;BME280;69682;52.138;5.440;2024-03-08T12:29:24;101193.84;;;11.23;54.85
80184;BME280;69682;52.138;5.440;2024-03-08T12:31:52;101188.56;;;11.10;55.92
80184;BME280;69682;52.138;5.440;2024-03-08T12:34:22;101191.75;;;11.15;55.96
80184;BME280;69682;52.138;5.440;2024-03-08T12:36:51;101187.97;;;11.30;53.45
80184;BME280;69682;52.138;5.440;2024-03-08T12:39:27;101170.19;;;11.18;55.03
80184;BME280;69682;52.138;5.440;2024-03-08T12:41:54;101177.97;;;11.21;54.67
80184;BME280;69682;52.138;5.440;2024-03-08T12:44:21;101175.81;;;11.26;54.59
80184;BME280;69682;52.138;5.440;2024-03-08T12:46:52;101157.75;;;11.06;55.50
80184;BME280;69682;52.138;5.440;2024-03-08T12:49:20;101165.19;;;11.13;54.35
80184;BME280;69682;52.138;5.440;2024-03-08T12:51:51;101156.19;;;11.03;55.03
80184;BME280;69682;52.138;5.440;2024-03-08T12:54:19;101155.91;;;11.19;55.44
80184;BME280;69682;52.138;5.440;2024-03-08T12:56:50;101152.16;;;10.85;54.50
80184;BME280;69682;52.138;5.440;2024-03-08T12:59:20;101154.19;;;11.18;54.18
80184;BME280;69682;52.138;5.440;2024-03-08T13:01:48;101152.91;;;11.24;54.11
80184;BME280;69682;52.138;5.440;2024-03-08T13:04:15;101144.72;;;11.14;54.87
80184;BME280;69682;52.138;5.440;2024-03-08T13:06:41;101143.28;;;11.45;54.60
80184;BME280;69682;52.138;5.440;2024-03-08T13:09:09;101139.69;;;11.57;53.52
80184;BME280;69682;52.138;5.440;2024-03-08T13:11:36;101128.63;;;11.51;54.08
80184;BME280;69682;52.138;5.440;2024-03-08T13:14:04;101130.38;;;10.91;54.46
80184;BME280;69682;52.138;5.440;2024-03-08T13:16:34;101129.56;;;11.14;54.15
80184;BME280;69682;52.138;5.440;2024-03-08T13:19:02;101125.81;;;11.17;53.41